createdAt,value
2022-09-09T00:00:37.638Z,99409.72
2022-09-09T00:03:26.946Z,99403.78
2022-09-09T00:06:26.424Z,99385.41
2022-09-09T00:09:21.400Z,99379.94
2022-09-09T00:12:37.817Z,99380.56
2022-09-09T00:16:01.295Z,99371.69
2022-09-09T00:19:15.889Z,99387.91
2022-09-09T00:22:22.868Z,99386.47
2022-09-09T00:25:18.680Z,99380.75
2022-09-09T00:28:15.254Z,99389.84
2022-09-09T00:31:11.398Z,99395.13
2022-09-09T00:34:03.110Z,99397.28
2022-09-09T00:36:52.386Z,99403.22
2022-09-09T00:39:48.565Z,99401.78
2022-09-09T00:42:42.556Z,99409.28
2022-09-09T00:45:36.080Z,99400.38
2022-09-09T00:48:24.467Z,99401.59
2022-09-09T00:51:26.854Z,99391.31
2022-09-09T00:54:29.741Z,99395.66
2022-09-09T00:57:30.644Z,99392.50
2022-09-09T01:00:24.879Z,99393.50
2022-09-09T01:03:28.919Z,99392.94
2022-09-09T01:06:13.615Z,99394.72
2022-09-09T01:09:22.102Z,99395.13
2022-09-09T01:12:17.367Z,99390.22
2022-09-09T01:15:29.311Z,99385.31
2022-09-09T01:18:20.385Z,99369.53
2022-09-09T01:21:45.181Z,99361.25
2022-09-09T01:25:11.133Z,99352.22
2022-09-09T01:28:37.497Z,99356.41
2022-09-09T01:31:32.939Z,99355.66
2022-09-09T01:34:19.557Z,99352.13
2022-09-09T01:37:07.758Z,99346.06
2022-09-09T01:39:52.971Z,99367.22
2022-09-09T01:42:37.826Z,99373.38
2022-09-09T01:45:24.244Z,99367.78
2022-09-09T01:48:09.101Z,99374.91
2022-09-09T01:51:01.915Z,99380.97
2022-09-09T01:53:47.192Z,99390.47
2022-09-09T01:56:47.657Z,99389.66
2022-09-09T01:59:52.727Z,99382.38
2022-09-09T02:03:04.470Z,99383.56
2022-09-09T02:06:12.312Z,99381.00
2022-09-09T02:09:00.086Z,99373.53
2022-09-09T02:11:48.009Z,99367.59
2022-09-09T02:14:47.552Z,99367.78
2022-09-09T02:17:36.891Z,99374.50
2022-09-09T02:20:34.919Z,99381.22
2022-09-09T02:23:21.408Z,99373.31
2022-09-09T02:26:15.389Z,99379.44
2022-09-09T02:29:06.449Z,99378.25
2022-09-09T02:31:55.575Z,99385.16
2022-09-09T02:34:48.758Z,99384.16
2022-09-09T02:37:39.678Z,99390.88
2022-09-09T02:40:25.435Z,99383.16
2022-09-09T02:43:16.991Z,99383.38
2022-09-09T02:46:09.257Z,99368.75
2022-09-09T02:49:09.951Z,99368.97
2022-09-09T02:52:19.071Z,99361.44
2022-09-09T02:55:40.057Z,99370.34
2022-09-09T02:58:27.603Z,99361.91
2022-09-09T03:01:20.207Z,99363.50
2022-09-09T03:04:05.858Z,99370.78
2022-09-09T03:06:50.994Z,99375.94
2022-09-09T03:09:38.744Z,99375.94
2022-09-09T03:12:23.836Z,99368.41
2022-09-09T03:15:09.479Z,99365.44
2022-09-09T03:17:55.608Z,99358.53
2022-09-09T03:20:42.520Z,99362.47
2022-09-09T03:23:28.498Z,99372.09
2022-09-09T03:26:15.528Z,99377.41
2022-09-09T03:29:06.944Z,99378.78
2022-09-09T03:31:51.955Z,99390.00
2022-09-09T03:34:40.820Z,99392.75
2022-09-09T03:37:28.754Z,99385.84
2022-09-09T03:40:14.065Z,99387.59
2022-09-09T03:43:01.207Z,99389.13
2022-09-09T03:45:49.385Z,99396.66
2022-09-09T03:48:34.948Z,99398.22
2022-09-09T03:51:20.410Z,99396.44
2022-09-09T03:54:08.550Z,99401.72
2022-09-09T03:56:54.106Z,99402.69
2022-09-09T03:59:41.249Z,99389.00
2022-09-09T04:02:26.323Z,99398.44
2022-09-09T04:05:11.670Z,99392.44
2022-09-09T04:07:59.409Z,99384.09
2022-09-09T04:10:47.092Z,99388.19
2022-09-09T04:13:33.383Z,99387.13
2022-09-09T04:16:18.723Z,99381.56
2022-09-09T04:19:05.446Z,99391.94
2022-09-09T04:21:52.038Z,99387.66
2022-09-09T04:24:39.159Z,99384.16
2022-09-09T04:27:23.949Z,99376.16
2022-09-09T04:30:09.674Z,99377.22
2022-09-09T04:32:55.437Z,99366.16
2022-09-09T04:35:48.268Z,99377.53
2022-09-09T04:38:33.935Z,99374.31
2022-09-09T04:41:20.122Z,99381.81
2022-09-09T04:44:08.156Z,99378.25
2022-09-09T04:46:53.191Z,99375.00
2022-09-09T04:49:38.871Z,99366.84
2022-09-09T04:52:24.052Z,99360.03
2022-09-09T04:55:10.155Z,99353.34
2022-09-09T04:57:55.384Z,99348.66
2022-09-09T05:00:40.781Z,99353.31
2022-09-09T05:03:27.010Z,99345.91
2022-09-09T05:06:19.883Z,99341.91
2022-09-09T05:09:06.953Z,99338.09
2022-09-09T05:11:52.238Z,99333.84
2022-09-09T05:14:47.601Z,99338.44
2022-09-09T05:17:32.819Z,99341.47
2022-09-09T05:20:18.918Z,99356.16
2022-09-09T05:23:05.026Z,99350.66
2022-09-09T05:25:57.326Z,99350.75
2022-09-09T05:28:42.838Z,99356.47
2022-09-09T05:31:30.956Z,99350.25
2022-09-09T05:34:18.141Z,99341.63
2022-09-09T05:37:03.072Z,99341.28
2022-09-09T05:39:48.861Z,99348.66
2022-09-09T05:42:35.653Z,99351.41
2022-09-09T05:45:21.142Z,99348.59
2022-09-09T05:48:06.210Z,99346.78
2022-09-09T05:50:55.375Z,99344.84
2022-09-09T05:53:40.685Z,99347.16
2022-09-09T05:56:28.574Z,99347.06
2022-09-09T05:59:15.356Z,99357.34
2022-09-09T06:02:00.466Z,99356.03
2022-09-09T06:04:50.922Z,99346.56
2022-09-09T06:07:36.127Z,99344.16
2022-09-09T06:10:21.105Z,99349.72
2022-09-09T06:13:06.448Z,99345.72
2022-09-09T06:15:52.682Z,99341.72
2022-09-09T06:18:39.525Z,99329.25
2022-09-09T06:21:27.199Z,99326.09
2022-09-09T06:24:14.279Z,99345.09
2022-09-09T06:27:02.294Z,99347.81
2022-09-09T06:29:52.006Z,99348.59
2022-09-09T06:32:38.369Z,99352.56
2022-09-09T06:35:23.541Z,99357.34
2022-09-09T06:38:09.005Z,99355.94
2022-09-09T06:40:56.166Z,99356.72
2022-09-09T06:43:42.302Z,99353.06
2022-09-09T06:46:31.600Z,99359.31
2022-09-09T06:49:16.604Z,99357.94
2022-09-09T06:52:01.768Z,99361.84
2022-09-09T06:54:49.212Z,99369.97
2022-09-09T06:57:37.705Z,99379.00
2022-09-09T07:00:31.932Z,99382.56
2022-09-09T07:03:17.021Z,99383.97
2022-09-09T07:06:02.644Z,99379.13
2022-09-09T07:08:56.577Z,99379.44
2022-09-09T07:11:47.238Z,99374.00
2022-09-09T07:14:36.533Z,99378.22
2022-09-09T07:17:24.412Z,99379.72
2022-09-09T07:20:12.673Z,99382.91
2022-09-09T07:22:59.662Z,99382.44
2022-09-09T07:25:46.523Z,99386.41
2022-09-09T07:28:37.346Z,99391.88
2022-09-09T07:31:25.951Z,99395.72
2022-09-09T07:34:11.570Z,99390.81
2022-09-09T07:36:57.951Z,99384.16
2022-09-09T07:39:44.553Z,99391.28
2022-09-09T07:42:29.745Z,99385.94
2022-09-09T07:45:15.080Z,99390.66
2022-09-09T07:48:00.282Z,99392.03
2022-09-09T07:50:45.729Z,99398.41
2022-09-09T07:53:31.717Z,99402.84
2022-09-09T07:56:17.962Z,99399.72
2022-09-09T07:59:04.799Z,99410.34
2022-09-09T08:01:54.867Z,99408.16
2022-09-09T08:04:42.513Z,99412.19
2022-09-09T08:07:28.961Z,99406.38
2022-09-09T08:10:15.096Z,99413.75
2022-09-09T08:13:18.244Z,99417.72
2022-09-09T08:16:12.671Z,99418.81
2022-09-09T08:18:58.925Z,99427.72
2022-09-09T08:21:45.310Z,99421.91
2022-09-09T08:24:30.887Z,99425.31
2022-09-09T08:27:15.887Z,99427.91
2022-09-09T08:30:00.970Z,99432.91
2022-09-09T08:32:50.748Z,99434.84
2022-09-09T08:35:38.947Z,99434.25
2022-09-09T08:38:24.346Z,99440.28
2022-09-09T08:41:27.985Z,99445.25
2022-09-09T08:44:38.222Z,99459.91
2022-09-09T08:47:43.333Z,99453.50
2022-09-09T08:50:35.935Z,99449.03
2022-09-09T08:53:43.356Z,99448.22
2022-09-09T08:56:32.819Z,99453.75
2022-09-09T08:59:19.924Z,99454.75
2022-09-09T09:02:16.919Z,99464.53
2022-09-09T09:05:18.075Z,99462.63
2022-09-09T09:08:27.565Z,99473.75
2022-09-09T09:11:12.572Z,99479.22
2022-09-09T09:14:10.567Z,99474.28
2022-09-09T09:17:10.089Z,99480.34
2022-09-09T09:19:55.594Z,99484.28
2022-09-09T09:23:04.832Z,99483.53
2022-09-09T09:25:53.162Z,99480.94
2022-09-09T09:28:40.541Z,99485.06
2022-09-09T09:31:32.487Z,99476.44
2022-09-09T09:34:18.457Z,99479.56
2022-09-09T09:37:18.904Z,99464.56
2022-09-09T09:40:13.474Z,99467.59
2022-09-09T09:43:01.494Z,99461.78
2022-09-09T09:46:06.806Z,99468.97
2022-09-09T09:49:01.388Z,99460.78
2022-09-09T09:51:47.517Z,99460.75
2022-09-09T09:54:42.892Z,99458.06
2022-09-09T09:57:30.572Z,99449.97
2022-09-09T10:00:22.572Z,99450.06
2022-09-09T10:03:24.206Z,99447.47
2022-09-09T10:06:10.345Z,99446.56
2022-09-09T10:09:03.215Z,99446.09
2022-09-09T10:11:58.247Z,99449.31
2022-09-09T10:15:17.123Z,99434.06
2022-09-09T10:18:31.967Z,99435.16
2022-09-09T10:21:28.879Z,99444.03
2022-09-09T10:24:36.173Z,99444.22
2022-09-09T10:27:36.128Z,99447.53
2022-09-09T10:30:59.265Z,99453.97
2022-09-09T10:38:17.333Z,99432.06
2022-09-09T10:41:18.697Z,99428.69
2022-09-09T10:44:35.065Z,99434.22
2022-09-09T10:47:39.281Z,99440.41
2022-09-09T10:54:03.654Z,99418.38
2022-09-09T10:56:57.125Z,99431.09
2022-09-09T10:59:57.343Z,99429.31
2022-09-09T11:02:42.625Z,99434.13
2022-09-09T11:05:50.391Z,99433.41
2022-09-09T11:08:39.565Z,99435.34
2022-09-09T11:11:57.175Z,99435.94
2022-09-09T11:15:05.784Z,99445.72
2022-09-09T11:17:59.198Z,99440.34
2022-09-09T11:20:48.166Z,99431.25
2022-09-09T11:24:05.727Z,99422.50
2022-09-09T11:26:59.435Z,99445.53
2022-09-09T11:29:57.770Z,99437.34
2022-09-09T11:32:56.972Z,99442.97
2022-09-09T11:35:44.705Z,99442.31
2022-09-09T11:38:42.826Z,99437.81
2022-09-09T11:41:37.689Z,99441.41
2022-09-09T11:44:30.922Z,99442.41
2022-09-09T11:47:27.001Z,99435.91
2022-09-09T11:50:14.739Z,99424.81
2022-09-09T11:53:21.525Z,99429.31
2022-09-09T11:56:14.955Z,99419.53
2022-09-09T11:58:59.982Z,99419.63
2022-09-09T12:01:49.676Z,99417.34
2022-09-09T12:04:45.243Z,99413.53
2022-09-09T12:07:33.345Z,99415.47
2022-09-09T12:10:24.745Z,99408.72
2022-09-09T12:13:17.187Z,99404.34
2022-09-09T12:16:05.684Z,99405.94
2022-09-09T12:18:51.132Z,99409.94
2022-09-09T12:22:13.523Z,99411.63
2022-09-09T12:25:40.396Z,99418.34
2022-09-09T12:28:56.631Z,99421.72
2022-09-09T12:31:50.516Z,99423.75
2022-09-09T12:34:43.251Z,99419.59
2022-09-09T12:37:48.859Z,99431.38
2022-09-09T12:40:39.575Z,99428.25
2022-09-09T12:43:26.823Z,99425.66
2022-09-09T12:46:23.741Z,99422.41
2022-09-09T12:49:36.789Z,99428.06
2022-09-09T12:52:30.539Z,99425.50
2022-09-09T12:55:22.105Z,99418.88
2022-09-09T12:58:07.704Z,99419.47
2022-09-09T13:00:56.745Z,99417.78
2022-09-09T13:03:46.102Z,99421.41
2022-09-09T13:06:32.251Z,99421.50
2022-09-09T13:12:14.271Z,99426.09
2022-09-09T13:14:58.839Z,99422.19
2022-09-09T13:17:50.963Z,99423.97
2022-09-09T13:20:35.736Z,99432.72
2022-09-09T13:23:22.439Z,99426.78
2022-09-09T13:26:23.717Z,99419.69
2022-09-09T13:29:19.307Z,99412.75
2022-09-09T13:32:17.498Z,99416.69
2022-09-09T13:35:03.143Z,99414.00
2022-09-09T13:37:47.875Z,99416.22
2022-09-09T13:40:32.783Z,99415.91
2022-09-09T13:43:23.252Z,99417.69
2022-09-09T13:46:28.042Z,99415.78
2022-09-09T13:49:12.735Z,99409.41
2022-09-09T13:52:27.664Z,99411.19
2022-09-09T13:55:13.343Z,99424.31
2022-09-09T13:58:01.190Z,99420.84
2022-09-09T14:00:46.934Z,99426.09
2022-09-09T14:03:31.836Z,99424.97
2022-09-09T14:06:18.427Z,99431.91
2022-09-09T14:09:03.745Z,99421.81
2022-09-09T14:11:49.032Z,99422.28
2022-09-09T14:14:34.140Z,99431.69
2022-09-09T14:17:19.153Z,99435.81
2022-09-09T14:20:12.215Z,99436.56
2022-09-09T14:23:03.255Z,99456.50
2022-09-09T14:25:49.489Z,99455.56
2022-09-09T14:28:54.447Z,99459.41
2022-09-09T14:31:40.353Z,99460.31
2022-09-09T14:34:25.292Z,99456.00
2022-09-09T14:37:10.435Z,99469.69
2022-09-09T14:39:56.625Z,99457.78
2022-09-09T14:42:41.719Z,99463.97
2022-09-09T14:45:27.121Z,99458.22
2022-09-09T14:48:11.738Z,99468.31
2022-09-09T14:50:56.783Z,99465.63
2022-09-09T14:53:42.782Z,99465.63
2022-09-09T14:56:30.902Z,99464.03
2022-09-09T14:59:15.652Z,99454.97
2022-09-09T15:02:04.820Z,99451.38
2022-09-09T15:04:50.439Z,99445.78
2022-09-09T15:07:36.108Z,99434.59
2022-09-09T15:10:21.506Z,99436.50
2022-09-09T15:13:06.237Z,99427.19
2022-09-09T15:15:52.140Z,99420.34
2022-09-09T15:18:40.659Z,99428.41
2022-09-09T15:21:28.295Z,99415.22
2022-09-09T15:24:14.491Z,99412.69
2022-09-09T15:27:00.340Z,99414.50
2022-09-09T15:29:44.862Z,99409.56
2022-09-09T15:32:29.927Z,99406.63
2022-09-09T15:35:15.902Z,99396.91
2022-09-09T15:38:05.316Z,99397.13
2022-09-09T15:40:55.282Z,99387.06
2022-09-09T15:43:50.706Z,99395.53
2022-09-09T15:46:48.953Z,99404.28
2022-09-09T15:49:34.334Z,99396.19
2022-09-09T15:52:18.950Z,99407.28
2022-09-09T15:55:04.252Z,99401.34
2022-09-09T15:57:49.120Z,99399.19
2022-09-09T16:00:40.036Z,99387.91
2022-09-09T16:03:24.880Z,99392.28
2022-09-09T16:06:14.552Z,99393.06
2022-09-09T16:09:02.513Z,99395.41
2022-09-09T16:11:48.496Z,99385.13
2022-09-09T16:14:36.215Z,99379.19
2022-09-09T16:17:21.408Z,99384.13
2022-09-09T16:20:09.192Z,99388.25
2022-09-09T16:22:54.072Z,99386.69
2022-09-09T16:25:40.228Z,99390.41
2022-09-09T16:28:25.420Z,99396.91
2022-09-09T16:31:17.245Z,99394.13
2022-09-09T16:34:03.811Z,99395.69
2022-09-09T16:36:49.307Z,99395.47
2022-09-09T16:39:44.749Z,99394.91
2022-09-09T16:42:29.380Z,99391.31
2022-09-09T16:45:17.557Z,99393.31
2022-09-09T16:48:02.578Z,99394.91
2022-09-09T16:50:47.395Z,99393.88
2022-09-09T16:53:33.120Z,99395.47
2022-09-09T16:56:30.758Z,99393.47
2022-09-09T16:59:30.890Z,99393.22
2022-09-09T17:02:15.879Z,99396.59
2022-09-09T17:05:00.762Z,99404.13
2022-09-09T17:07:45.821Z,99400.53
2022-09-09T17:10:31.256Z,99411.63
2022-09-09T17:13:20.037Z,99410.06
2022-09-09T17:16:05.385Z,99416.19
2022-09-09T17:18:54.611Z,99417.97
2022-09-09T17:21:54.488Z,99404.56
2022-09-09T17:24:45.696Z,99413.63
2022-09-09T17:27:31.891Z,99417.19
2022-09-09T17:30:19.320Z,99427.72
2022-09-09T17:33:04.896Z,99424.91
2022-09-09T17:35:49.513Z,99425.94
2022-09-09T17:38:34.507Z,99429.50
2022-09-09T17:41:20.658Z,99436.00
2022-09-09T17:46:58.051Z,99425.16
2022-09-09T17:49:43.368Z,99423.78
2022-09-09T17:52:31.114Z,99423.78
2022-09-09T17:55:17.516Z,99422.44
2022-09-09T17:58:02.638Z,99431.72
2022-09-09T18:03:49.899Z,99429.94
2022-09-09T18:06:40.720Z,99429.38
2022-09-09T18:09:26.288Z,99440.47
2022-09-09T18:12:12.291Z,99432.94
2022-09-09T18:15:05.905Z,99431.94
2022-09-09T18:17:51.293Z,99430.16
2022-09-09T18:20:36.185Z,99427.78
2022-09-09T18:23:21.190Z,99418.72
2022-09-09T18:26:14.613Z,99428.81
2022-09-09T18:29:03.597Z,99423.09
2022-09-09T18:31:48.474Z,99421.50
2022-09-09T18:34:44.179Z,99425.31
2022-09-09T18:37:34.386Z,99424.09
2022-09-09T18:40:26.411Z,99415.81
2022-09-09T18:43:12.415Z,99422.72
2022-09-09T18:46:06.180Z,99421.94
2022-09-09T18:48:51.913Z,99423.53
2022-09-09T18:51:40.445Z,99431.25
2022-09-09T18:54:32.615Z,99423.16
2022-09-09T18:57:18.060Z,99431.69
2022-09-09T19:00:04.102Z,99419.00
2022-09-09T19:02:52.573Z,99422.38
2022-09-09T19:05:37.276Z,99420.03
2022-09-09T19:08:29.814Z,99430.31
2022-09-09T19:11:18.416Z,99432.66
2022-09-09T19:14:05.388Z,99429.28
2022-09-09T19:16:51.109Z,99429.53
2022-09-09T19:19:38.182Z,99424.38
2022-09-09T19:22:25.336Z,99432.47
2022-09-09T19:25:11.134Z,99430.50
2022-09-09T19:27:55.676Z,99432.53
2022-09-09T19:30:44.345Z,99428.81
2022-09-09T19:33:29.072Z,99411.00
2022-09-09T19:36:18.435Z,99412.22
2022-09-09T19:39:05.333Z,99415.03
2022-09-09T19:41:50.055Z,99420.75
2022-09-09T19:44:35.263Z,99423.31
2022-09-09T19:47:23.242Z,99420.75
2022-09-09T19:50:11.371Z,99426.44
2022-09-09T19:52:56.371Z,99422.88
2022-09-09T19:55:41.331Z,99413.16
2022-09-09T19:58:27.454Z,99418.09
2022-09-09T20:01:16.859Z,99424.44
2022-09-09T20:04:04.818Z,99414.75
2022-09-09T20:06:52.521Z,99417.88
2022-09-09T20:09:37.485Z,99416.28
2022-09-09T20:12:22.482Z,99414.09
2022-09-09T20:15:09.020Z,99416.66
2022-09-09T20:17:54.519Z,99419.47
2022-09-09T20:20:42.553Z,99410.16
2022-09-09T20:23:31.313Z,99413.53
2022-09-09T20:26:20.621Z,99404.44
2022-09-09T20:29:16.592Z,99403.44
2022-09-09T20:32:01.825Z,99398.50
2022-09-09T20:34:48.514Z,99405.25
2022-09-09T20:37:33.757Z,99407.59
2022-09-09T20:40:21.827Z,99405.00
2022-09-09T20:43:06.957Z,99402.31
2022-09-09T20:45:53.470Z,99409.38
2022-09-09T20:48:40.036Z,99399.06
2022-09-09T20:51:35.103Z,99393.13
2022-09-09T20:54:22.717Z,99404.22
2022-09-09T20:57:07.944Z,99406.00
2022-09-09T20:59:56.421Z,99401.88
2022-09-09T21:02:52.944Z,99399.84
2022-09-09T21:05:38.576Z,99396.28
2022-09-09T21:08:30.503Z,99392.13
2022-09-09T21:11:16.947Z,99391.34
2022-09-09T21:14:04.040Z,99383.25
2022-09-09T21:19:51.132Z,99380.91
2022-09-09T21:22:35.919Z,99380.91
2022-09-09T21:25:23.635Z,99377.34
2022-09-09T21:28:09.267Z,99384.06
2022-09-09T21:31:00.396Z,99384.06
2022-09-09T21:33:48.986Z,99381.47
2022-09-09T21:36:33.899Z,99376.34
2022-09-09T21:39:28.517Z,99387.41
2022-09-09T21:42:15.443Z,99383.25
2022-09-09T21:45:00.383Z,99375.34
2022-09-09T21:47:52.420Z,99371.00
2022-09-09T21:50:38.201Z,99371.97
2022-09-09T21:53:24.371Z,99370.41
2022-09-09T21:56:15.430Z,99373.56
2022-09-09T21:59:11.268Z,99377.69
2022-09-09T22:01:57.742Z,99376.69
2022-09-09T22:04:44.514Z,99375.13
2022-09-09T22:07:32.727Z,99373.34
2022-09-09T22:10:32.266Z,99369.22
2022-09-09T22:13:18.836Z,99367.06
2022-09-09T22:16:06.441Z,99361.91
2022-09-09T22:18:56.073Z,99366.28
2022-09-09T22:21:41.024Z,99371.41
2022-09-09T22:24:27.051Z,99368.06
2022-09-09T22:27:14.117Z,99373.75
2022-09-09T22:29:59.125Z,99366.47
2022-09-09T22:32:44.186Z,99366.28
2022-09-09T22:35:29.535Z,99368.84
2022-09-09T22:38:16.703Z,99366.28
2022-09-09T22:41:04.496Z,99357.75
2022-09-09T22:43:49.400Z,99358.75
2022-09-09T22:46:34.512Z,99355.84
2022-09-09T22:49:19.761Z,99354.81
2022-09-09T22:52:05.079Z,99361.56
2022-09-09T22:54:51.421Z,99353.28
2022-09-09T22:57:36.878Z,99351.91
2022-09-09T23:00:21.990Z,99350.91
2022-09-09T23:03:09.917Z,99353.47
2022-09-09T23:06:03.618Z,99349.34
2022-09-09T23:08:57.385Z,99341.19
2022-09-09T23:11:42.212Z,99335.25
2022-09-09T23:14:27.295Z,99332.69
2022-09-09T23:17:15.432Z,99329.31
2022-09-09T23:20:02.845Z,99324.41
2022-09-09T23:22:50.412Z,99310.09
2022-09-09T23:25:35.345Z,99310.09
2022-09-09T23:28:19.879Z,99313.66
2022-09-09T23:31:10.476Z,99309.72
2022-09-09T23:33:58.571Z,99307.75
2022-09-09T23:36:57.876Z,99295.88
2022-09-09T23:39:43.598Z,99301.03
2022-09-09T23:42:32.729Z,99301.81
2022-09-09T23:45:21.905Z,99293.06
2022-09-09T23:48:12.390Z,99305.50
2022-09-09T23:50:58.587Z,99304.94
2022-09-09T23:53:52.268Z,99300.59
2022-09-09T23:56:40.658Z,99289.28
2022-09-09T23:59:25.804Z,99294.88
